createdAt,value
2023-01-07T00:00:00.913Z,8.4
2023-01-07T00:03:00.980Z,8.2
2023-01-07T00:06:00.837Z,8.2
2023-01-07T00:09:00.777Z,8.2
2023-01-07T00:12:00.790Z,8.2
2023-01-07T00:15:00.835Z,8.2
2023-01-07T00:18:00.823Z,8.2
2023-01-07T00:21:00.828Z,8.2
2023-01-07T00:24:00.890Z,8.2
2023-01-07T00:27:00.896Z,8.2
2023-01-07T00:30:00.842Z,8.2
2023-01-07T00:33:00.791Z,8.2
2023-01-07T00:36:00.811Z,8.1
2023-01-07T00:39:00.871Z,8.1
2023-01-07T00:42:00.814Z,8.1
2023-01-07T00:45:00.804Z,8.1
2023-01-07T00:48:00.773Z,8.1
2023-01-07T00:51:00.837Z,8.2
2023-01-07T00:54:00.809Z,8.2
2023-01-07T00:57:00.860Z,8.2
2023-01-07T01:00:00.886Z,8.2
2023-01-07T01:03:00.858Z,8.2
2023-01-07T01:06:01.137Z,8.4
2023-01-07T01:09:00.884Z,8.4
2023-01-07T01:12:00.852Z,8.4
2023-01-07T01:15:00.835Z,8.4
2023-01-07T01:18:00.795Z,8.4
2023-01-07T01:21:00.852Z,8.4
2023-01-07T01:24:00.841Z,8.4
2023-01-07T01:27:00.908Z,8.9
2023-01-07T01:30:00.900Z,8.9
2023-01-07T01:33:00.860Z,8.9
2023-01-07T01:36:00.956Z,9
2023-01-07T01:39:00.841Z,9
2023-01-07T01:42:00.955Z,9
2023-01-07T01:45:00.803Z,9
2023-01-07T01:48:00.826Z,9
2023-01-07T01:51:00.862Z,9
2023-01-07T01:54:00.840Z,9
2023-01-07T01:57:00.798Z,9
2023-01-07T02:00:00.939Z,9
2023-01-07T02:03:00.919Z,9
2023-01-07T02:06:00.855Z,9
2023-01-07T02:09:00.964Z,9
2023-01-07T02:12:00.890Z,9.4
2023-01-07T02:15:00.853Z,9.4
2023-01-07T02:18:00.858Z,9.4
2023-01-07T02:21:00.806Z,9.4
2023-01-07T02:24:00.835Z,9.4
2023-01-07T02:27:00.864Z,9.4
2023-01-07T02:30:00.854Z,9.4
2023-01-07T02:33:00.844Z,9.4
2023-01-07T02:36:00.817Z,9.4
2023-01-07T02:39:00.800Z,9.4
2023-01-07T02:42:01.436Z,9.4
2023-01-07T02:45:00.883Z,9.4
2023-01-07T02:48:00.808Z,9.4
2023-01-07T02:51:00.809Z,9.4
2023-01-07T02:54:00.804Z,9.4
2023-01-07T02:57:00.812Z,9.4
2023-01-07T03:00:00.841Z,9.4
2023-01-07T03:03:00.852Z,9.4
2023-01-07T03:06:00.782Z,9.4
2023-01-07T03:09:00.819Z,9.4
2023-01-07T03:12:00.832Z,9.4
2023-01-07T03:15:00.825Z,9.1
2023-01-07T03:18:00.907Z,9.1
2023-01-07T03:21:00.932Z,9.1
2023-01-07T03:24:00.861Z,9.1
2023-01-07T03:27:00.847Z,9.1
2023-01-07T03:30:00.852Z,9.1
2023-01-07T03:33:00.857Z,9.1
2023-01-07T03:36:00.813Z,9.1
2023-01-07T03:39:00.826Z,9.1
2023-01-07T03:42:00.856Z,9.1
2023-01-07T03:45:01.039Z,9.1
2023-01-07T03:48:00.861Z,9.1
2023-01-07T03:51:00.827Z,9.1
2023-01-07T03:54:00.801Z,9.1
2023-01-07T03:57:00.857Z,9.1
2023-01-07T04:00:00.818Z,9.1
2023-01-07T04:03:00.813Z,9.1
2023-01-07T04:06:00.798Z,9.1
2023-01-07T04:09:00.778Z,9.1
2023-01-07T04:12:00.857Z,9.1
2023-01-07T04:15:00.801Z,9.1
2023-01-07T04:18:00.855Z,9
2023-01-07T04:21:00.867Z,9
2023-01-07T04:24:00.792Z,9
2023-01-07T04:27:00.936Z,9
2023-01-07T04:30:00.859Z,9
2023-01-07T04:33:00.843Z,9
2023-01-07T04:36:00.769Z,9
2023-01-07T04:39:00.826Z,9
2023-01-07T04:42:00.800Z,9
2023-01-07T04:45:00.839Z,9
2023-01-07T04:48:00.827Z,9
2023-01-07T04:51:00.816Z,9
2023-01-07T04:54:00.807Z,9
2023-01-07T04:57:00.811Z,9
2023-01-07T05:00:00.866Z,9
2023-01-07T05:03:00.818Z,9
2023-01-07T05:06:00.865Z,9
2023-01-07T05:09:00.893Z,9
2023-01-07T05:12:00.818Z,9
2023-01-07T05:15:00.913Z,9
2023-01-07T05:18:00.859Z,9
2023-01-07T05:21:00.887Z,9
2023-01-07T05:24:00.820Z,9
2023-01-07T05:27:00.894Z,9
2023-01-07T05:30:01.024Z,9
2023-01-07T05:33:00.844Z,9
2023-01-07T05:36:00.859Z,9
2023-01-07T05:39:00.835Z,9
2023-01-07T05:42:00.779Z,9
2023-01-07T05:45:00.851Z,9
2023-01-07T05:48:00.789Z,9
2023-01-07T05:51:00.797Z,9
2023-01-07T05:54:00.774Z,9
2023-01-07T05:57:00.864Z,9
2023-01-07T06:00:00.913Z,9
2023-01-07T06:03:00.843Z,9
2023-01-07T06:06:00.941Z,9
2023-01-07T06:09:00.897Z,9
2023-01-07T06:12:00.847Z,9
2023-01-07T06:15:00.810Z,9
2023-01-07T06:18:00.847Z,9
2023-01-07T06:21:00.784Z,9.1
2023-01-07T06:24:00.856Z,9.1
2023-01-07T06:27:00.822Z,9.1
2023-01-07T06:30:00.867Z,9.1
2023-01-07T06:33:00.839Z,9.1
2023-01-07T06:36:00.808Z,9.1
2023-01-07T06:39:00.806Z,9.1
2023-01-07T06:42:00.881Z,9.1
2023-01-07T06:45:00.839Z,9.1
2023-01-07T06:48:00.795Z,9.1
2023-01-07T06:51:00.867Z,9.1
2023-01-07T06:54:00.815Z,9.1
2023-01-07T06:57:00.823Z,9.1
2023-01-07T07:00:00.836Z,9.1
2023-01-07T07:03:00.913Z,9.1
2023-01-07T07:06:00.825Z,9.1
2023-01-07T07:09:00.828Z,9.1
2023-01-07T07:12:00.843Z,9.1
2023-01-07T07:15:00.869Z,9.1
2023-01-07T07:18:00.820Z,8.8
2023-01-07T07:21:00.800Z,8.8
2023-01-07T07:24:00.820Z,8.8
2023-01-07T07:27:00.894Z,8.8
2023-01-07T07:30:00.871Z,8.8
2023-01-07T07:33:00.835Z,8.8
2023-01-07T07:36:00.795Z,8.8
2023-01-07T07:39:00.956Z,8.8
2023-01-07T07:42:00.906Z,8.8
2023-01-07T07:45:00.849Z,8.8
2023-01-07T07:48:00.909Z,8.8
2023-01-07T07:51:00.889Z,8.8
2023-01-07T07:54:00.813Z,8.8
2023-01-07T07:57:00.858Z,8.8
2023-01-07T08:00:00.865Z,8.8
2023-01-07T08:03:01.066Z,8.8
2023-01-07T08:06:00.886Z,8.8
2023-01-07T08:09:00.859Z,8.8
2023-01-07T08:12:00.856Z,8.9
2023-01-07T08:15:00.850Z,8.9
2023-01-07T08:18:00.835Z,8.9
2023-01-07T08:21:00.879Z,8.9
2023-01-07T08:24:00.829Z,8.9
2023-01-07T08:27:00.893Z,8.9
2023-01-07T08:30:00.965Z,8.9
2023-01-07T08:33:00.842Z,8.9
2023-01-07T08:36:01.109Z,8.9
2023-01-07T08:39:00.871Z,8.9
2023-01-07T08:42:00.858Z,8.9
2023-01-07T08:45:00.902Z,8.9
2023-01-07T08:48:00.920Z,8.9
2023-01-07T08:51:00.869Z,8.9
2023-01-07T08:54:00.811Z,8.9
2023-01-07T08:57:00.825Z,8.9
2023-01-07T09:00:00.933Z,9.4
2023-01-07T09:03:01.015Z,9.5
2023-01-07T09:06:00.879Z,9.5
2023-01-07T09:09:00.789Z,9.5
2023-01-07T09:12:00.851Z,9.5
2023-01-07T09:15:00.924Z,9.5
2023-01-07T09:18:00.925Z,9.5
2023-01-07T09:21:00.835Z,9.5
2023-01-07T09:24:00.839Z,9.5
2023-01-07T09:27:00.835Z,9.9
2023-01-07T09:30:00.924Z,9.9
2023-01-07T09:33:00.852Z,9.9
2023-01-07T09:36:00.858Z,9.9
2023-01-07T09:39:00.794Z,9.9
2023-01-07T09:42:00.775Z,9.9
2023-01-07T09:45:00.848Z,9.9
2023-01-07T09:48:00.852Z,9.9
2023-01-07T09:51:00.838Z,9.9
2023-01-07T09:54:00.827Z,9.9
2023-01-07T09:57:00.854Z,10.4
2023-01-07T10:00:00.931Z,10.4
2023-01-07T10:03:00.980Z,10.4
2023-01-07T10:06:00.868Z,10.4
2023-01-07T10:09:00.829Z,10.4
2023-01-07T10:12:00.875Z,10.4
2023-01-07T10:15:00.867Z,10.4
2023-01-07T10:18:00.871Z,10.7
2023-01-07T10:21:00.863Z,10.7
2023-01-07T10:24:00.965Z,10.7
2023-01-07T10:27:00.825Z,10.7
2023-01-07T10:30:00.941Z,10.7
2023-01-07T10:33:00.819Z,10.7
2023-01-07T10:36:00.847Z,10.7
2023-01-07T10:39:00.796Z,10.8
2023-01-07T10:42:00.846Z,10.8
2023-01-07T10:45:00.787Z,10.8
2023-01-07T10:48:00.876Z,10.8
2023-01-07T10:51:00.884Z,10.8
2023-01-07T10:54:00.813Z,10.8
2023-01-07T10:57:00.892Z,10.8
2023-01-07T11:00:00.919Z,10.8
2023-01-07T11:03:01.080Z,10.8
2023-01-07T11:06:00.823Z,10.8
2023-01-07T11:09:00.816Z,10.8
2023-01-07T11:12:00.877Z,10.8
2023-01-07T11:15:00.844Z,10.8
2023-01-07T11:18:00.879Z,10.8
2023-01-07T11:21:00.879Z,10.8
2023-01-07T11:24:00.814Z,10.8
2023-01-07T11:27:00.836Z,11
2023-01-07T11:30:00.972Z,11
2023-01-07T11:33:00.854Z,11
2023-01-07T11:36:00.851Z,11
2023-01-07T11:39:00.856Z,11
2023-01-07T11:42:00.872Z,11
2023-01-07T11:45:00.908Z,11
2023-01-07T11:48:00.951Z,11
2023-01-07T11:51:00.796Z,11.2
2023-01-07T11:54:00.905Z,11.2
2023-01-07T11:57:00.857Z,11.2
2023-01-07T12:00:00.883Z,11.2
2023-01-07T12:03:00.834Z,11.2
2023-01-07T12:06:00.909Z,11.2
2023-01-07T12:09:01.651Z,11.2
2023-01-07T12:12:00.929Z,11.3
2023-01-07T12:15:00.880Z,11.3
2023-01-07T12:18:00.777Z,11.3
2023-01-07T12:21:00.836Z,11.3
2023-01-07T12:24:00.868Z,11.4
2023-01-07T12:27:00.901Z,11.4
2023-01-07T12:30:00.982Z,11.4
2023-01-07T12:33:00.860Z,11.4
2023-01-07T12:36:00.904Z,11.4
2023-01-07T12:39:00.994Z,11.4
2023-01-07T12:42:00.893Z,11.4
2023-01-07T12:45:00.885Z,11.5
2023-01-07T12:48:00.914Z,11.5
2023-01-07T12:51:00.831Z,11.5
2023-01-07T12:54:00.847Z,11.4
2023-01-07T12:57:00.837Z,11.4
2023-01-07T13:00:00.995Z,11.4
2023-01-07T13:03:00.872Z,11.4
2023-01-07T13:06:00.923Z,11.4
2023-01-07T13:09:00.878Z,11.4
2023-01-07T13:12:00.856Z,11.4
2023-01-07T13:15:00.830Z,11.4
2023-01-07T13:18:00.840Z,11.4
2023-01-07T13:21:00.847Z,11.4
2023-01-07T13:24:00.850Z,11.4
2023-01-07T13:27:00.843Z,11.4
2023-01-07T13:30:00.871Z,11.1
2023-01-07T13:33:00.833Z,11.1
2023-01-07T13:36:00.821Z,11.1
2023-01-07T13:39:00.810Z,11.1
2023-01-07T13:42:01.022Z,11.1
2023-01-07T13:45:00.841Z,11.1
2023-01-07T13:48:00.835Z,11
2023-01-07T13:51:00.854Z,11
2023-01-07T13:54:00.907Z,11
2023-01-07T13:57:00.875Z,11
2023-01-07T14:00:00.924Z,10.9
2023-01-07T14:03:01.088Z,10.9
2023-01-07T14:06:00.842Z,10.9
2023-01-07T14:09:00.844Z,10.9
2023-01-07T14:12:00.801Z,10.9
2023-01-07T14:15:00.863Z,10.9
2023-01-07T14:18:00.974Z,10.9
2023-01-07T14:21:00.885Z,10.9
2023-01-07T14:24:00.855Z,10.9
2023-01-07T14:27:00.809Z,10.9
2023-01-07T14:30:16.815Z,10.9
2023-01-07T14:33:00.879Z,10.7
2023-01-07T14:36:00.991Z,10.7
2023-01-07T14:39:00.933Z,10.7
2023-01-07T14:42:00.876Z,10.7
2023-01-07T14:45:00.834Z,10.7
2023-01-07T14:48:00.909Z,10.7
2023-01-07T14:51:00.865Z,10.7
2023-01-07T14:54:00.899Z,10.6
2023-01-07T14:57:00.829Z,10.6
2023-01-07T15:00:00.916Z,10.6
2023-01-07T15:03:00.906Z,10.6
2023-01-07T15:06:00.849Z,10.6
2023-01-07T15:09:00.854Z,10.6
2023-01-07T15:12:00.995Z,10.6
2023-01-07T15:15:00.839Z,10.6
2023-01-07T15:18:00.879Z,10.6
2023-01-07T15:21:00.863Z,10.6
2023-01-07T15:24:00.868Z,10.6
2023-01-07T15:27:00.836Z,10.6
2023-01-07T15:30:00.892Z,10.6
2023-01-07T15:33:00.832Z,10.6
2023-01-07T15:36:00.849Z,10.6
2023-01-07T15:39:00.812Z,10.6
2023-01-07T15:42:00.838Z,10.4
2023-01-07T15:45:00.842Z,10.3
2023-01-07T15:48:00.793Z,10.3
2023-01-07T15:51:00.954Z,10.3
2023-01-07T15:54:01.412Z,10.3
2023-01-07T15:57:00.875Z,10.3
2023-01-07T16:00:01.054Z,10.3
2023-01-07T16:03:01.139Z,10.3
2023-01-07T16:06:02.139Z,10.3
2023-01-07T16:09:01.042Z,10.3
2023-01-07T16:12:01.243Z,10.3
2023-01-07T16:15:04.987Z,10.3
2023-01-07T16:18:00.878Z,10.3
2023-01-07T16:21:00.812Z,10.3
2023-01-07T16:24:00.837Z,10.3
2023-01-07T16:27:00.836Z,10.3
2023-01-07T16:30:01.065Z,10.3
2023-01-07T16:33:00.922Z,10.3
2023-01-07T16:36:00.848Z,10.3
2023-01-07T16:39:00.832Z,10
2023-01-07T16:42:00.834Z,10
2023-01-07T16:45:00.772Z,10
2023-01-07T16:48:00.827Z,10
2023-01-07T16:51:00.798Z,10
2023-01-07T16:54:01.256Z,9.8
2023-01-07T16:57:00.892Z,9.8
2023-01-07T17:00:00.919Z,9.8
2023-01-07T17:03:01.239Z,9.8
2023-01-07T17:06:00.847Z,9.8
2023-01-07T17:09:01.067Z,9.5
2023-01-07T17:12:00.875Z,9.5
2023-01-07T17:15:00.804Z,9.5
2023-01-07T17:18:00.835Z,9.5
2023-01-07T17:21:00.800Z,9.5
2023-01-07T17:24:00.809Z,9.5
2023-01-07T17:27:00.834Z,9.5
2023-01-07T17:30:00.827Z,9.2
2023-01-07T17:33:00.820Z,9.2
2023-01-07T17:36:00.832Z,9.2
2023-01-07T17:39:00.871Z,9.2
2023-01-07T17:42:00.782Z,8.9
2023-01-07T17:45:00.815Z,8.9
2023-01-07T17:48:00.776Z,8.9
2023-01-07T17:51:00.852Z,8.9
2023-01-07T17:54:01.995Z,8.9
2023-01-07T17:57:00.771Z,8.9
2023-01-07T18:00:00.860Z,8.8
2023-01-07T18:03:00.992Z,8.8
2023-01-07T18:06:00.882Z,8.8
2023-01-07T18:09:00.984Z,8.8
2023-01-07T18:12:00.820Z,8.8
2023-01-07T18:15:00.826Z,8.8
2023-01-07T18:18:00.854Z,8.8
2023-01-07T18:21:00.820Z,8.8
2023-01-07T18:24:00.958Z,8.8
2023-01-07T18:27:00.824Z,8.8
2023-01-07T18:30:00.841Z,8.4
2023-01-07T18:33:00.845Z,8.4
2023-01-07T18:36:00.813Z,8.4
2023-01-07T18:39:00.893Z,8.4
2023-01-07T18:42:00.782Z,8.4
2023-01-07T18:45:00.858Z,8.4
2023-01-07T18:48:00.842Z,8.4
2023-01-07T18:51:00.828Z,8.4
2023-01-07T18:54:00.859Z,8.4
2023-01-07T18:57:00.797Z,8.4
2023-01-07T19:00:00.859Z,8.4
2023-01-07T19:03:00.819Z,8.4
2023-01-07T19:06:00.876Z,8.4
2023-01-07T19:09:00.804Z,8.4
2023-01-07T19:12:00.890Z,8.4
2023-01-07T19:15:00.875Z,8.4
2023-01-07T19:18:00.857Z,8.4
2023-01-07T19:21:00.813Z,8.4
2023-01-07T19:24:01.492Z,8.4
2023-01-07T19:27:00.827Z,8.4
2023-01-07T19:30:00.818Z,8.6
2023-01-07T19:33:00.973Z,8.6
2023-01-07T19:36:00.828Z,8.6
2023-01-07T19:39:00.886Z,8.6
2023-01-07T19:42:00.793Z,8.6
2023-01-07T19:45:00.856Z,8.6
2023-01-07T19:48:00.813Z,8.6
2023-01-07T19:51:02.654Z,8.6
2023-01-07T19:54:02.112Z,8.6
2023-01-07T19:57:00.818Z,8.6
2023-01-07T20:00:00.887Z,8.6
2023-01-07T20:03:00.931Z,8.6
2023-01-07T20:06:00.783Z,8.6
2023-01-07T20:09:00.805Z,8.6
2023-01-07T20:12:00.864Z,8.6
2023-01-07T20:15:01.158Z,8.6
2023-01-07T20:18:00.948Z,8.6
2023-01-07T20:21:00.856Z,8.4
2023-01-07T20:24:00.784Z,8.4
2023-01-07T20:27:00.815Z,8.4
2023-01-07T20:30:00.887Z,8.4
2023-01-07T20:33:00.939Z,8.4
2023-01-07T20:36:00.814Z,8.4
2023-01-07T20:39:00.814Z,8.4
2023-01-07T20:42:00.839Z,8.4
2023-01-07T20:45:00.832Z,8.4
2023-01-07T20:48:01.454Z,8.4
2023-01-07T20:51:00.882Z,8.4
2023-01-07T20:54:01.162Z,8.5
2023-01-07T20:57:00.844Z,8.5
2023-01-07T21:00:00.828Z,8.5
2023-01-07T21:03:01.014Z,8.5
2023-01-07T21:06:00.903Z,8.5
2023-01-07T21:09:00.817Z,8.5
2023-01-07T21:12:00.776Z,8.5
2023-01-07T21:15:00.932Z,8.5
2023-01-07T21:18:01.145Z,8.7
2023-01-07T21:21:00.843Z,8.7
2023-01-07T21:24:02.653Z,8.7
2023-01-07T21:27:00.780Z,8.7
2023-01-07T21:30:00.808Z,8.7
2023-01-07T21:33:01.219Z,8.7
2023-01-07T21:36:00.978Z,8.7
2023-01-07T21:39:00.837Z,8.7
2023-01-07T21:42:00.897Z,8.7
2023-01-07T21:45:00.925Z,8.7
2023-01-07T21:48:00.889Z,8.7
2023-01-07T21:51:00.847Z,8.7
2023-01-07T21:54:00.844Z,8.7
2023-01-07T21:57:00.853Z,8.7
2023-01-07T22:00:00.859Z,8.7
2023-01-07T22:03:00.849Z,8.7
2023-01-07T22:06:01.198Z,8.7
2023-01-07T22:09:01.934Z,8.7
2023-01-07T22:12:01.164Z,8.7
2023-01-07T22:15:00.834Z,8.9
2023-01-07T22:18:00.821Z,8.8
2023-01-07T22:21:00.813Z,8.8
2023-01-07T22:24:00.839Z,8.8
2023-01-07T22:27:00.826Z,8.8
2023-01-07T22:30:00.909Z,8.8
2023-01-07T22:33:00.833Z,8.8
2023-01-07T22:36:00.811Z,8.8
2023-01-07T22:39:00.871Z,8.8
2023-01-07T22:42:00.805Z,8.8
2023-01-07T22:45:00.828Z,8.8
2023-01-07T22:48:00.860Z,8.8
2023-01-07T22:51:00.848Z,9
2023-01-07T22:54:00.838Z,9
2023-01-07T22:57:00.759Z,8.9
2023-01-07T23:00:01.657Z,8.9
2023-01-07T23:03:00.994Z,8.9
2023-01-07T23:06:00.806Z,8.9
2023-01-07T23:09:00.775Z,8.9
2023-01-07T23:12:00.909Z,8.8
2023-01-07T23:15:00.812Z,8.8
2023-01-07T23:18:00.833Z,8.8
2023-01-07T23:21:00.799Z,8.9
2023-01-07T23:24:00.843Z,8.9
2023-01-07T23:27:00.828Z,8.9
2023-01-07T23:30:00.859Z,8.9
2023-01-07T23:33:00.807Z,8.9
2023-01-07T23:36:00.828Z,9
2023-01-07T23:39:00.819Z,9
2023-01-07T23:42:00.840Z,9
2023-01-07T23:45:00.813Z,9
2023-01-07T23:48:00.786Z,9
2023-01-07T23:51:00.800Z,9
2023-01-07T23:54:00.820Z,9
2023-01-07T23:57:00.788Z,9
